createdAt,value
2022-10-04T00:03:23.339Z,1.30
2022-10-04T00:08:52.658Z,1.40
2022-10-04T00:14:01.804Z,1.50
2022-10-04T00:19:19.969Z,1.40
2022-10-04T00:24:32.066Z,1.10
2022-10-04T00:29:39.094Z,1.30
2022-10-04T00:34:48.222Z,2.30
2022-10-04T00:40:04.748Z,1.20
2022-10-04T00:45:22.703Z,1.20
2022-10-04T00:50:44.040Z,1.30
2022-10-04T00:55:54.414Z,1.30
2022-10-04T01:00:59.318Z,1.20
2022-10-04T01:06:06.398Z,2.40
2022-10-04T01:11:21.547Z,1.90
2022-10-04T01:16:28.056Z,1.70
2022-10-04T01:21:32.367Z,1.90
2022-10-04T01:31:52.443Z,1.80
2022-10-04T01:36:58.329Z,3.80
2022-10-04T01:42:21.144Z,2.50
2022-10-04T01:47:53.331Z,1.40
2022-10-04T01:53:06.472Z,1.60
2022-10-04T01:58:17.361Z,1.70
2022-10-04T02:03:36.596Z,1.70
2022-10-04T02:08:45.999Z,2.50
2022-10-04T02:13:53.405Z,1.70
2022-10-04T02:18:57.844Z,2.40
2022-10-04T02:24:01.595Z,1.80
2022-10-04T02:29:05.390Z,2.20
2022-10-04T02:34:09.144Z,1.70
2022-10-04T02:39:21.737Z,1.80
2022-10-04T02:44:28.222Z,1.30
2022-10-04T02:49:38.341Z,1.50
2022-10-04T02:55:01.364Z,1.30
2022-10-04T03:00:17.475Z,1.60
2022-10-04T03:05:22.071Z,2.20
2022-10-04T03:10:26.042Z,1.40
2022-10-04T03:15:29.662Z,2.90
2022-10-04T03:20:38.299Z,1.80
2022-10-04T03:25:57.377Z,1.50
2022-10-04T03:31:01.361Z,2.00
2022-10-04T03:36:05.225Z,3.30
2022-10-04T03:41:12.122Z,1.70
2022-10-04T03:46:15.764Z,2.60
2022-10-04T03:51:27.562Z,3.20
2022-10-04T03:56:36.964Z,2.00
2022-10-04T04:01:51.073Z,4.90
2022-10-04T04:07:03.593Z,2.00
2022-10-04T04:12:14.175Z,2.20
2022-10-04T04:17:26.496Z,2.00
2022-10-04T04:22:31.753Z,2.10
2022-10-04T04:27:40.079Z,2.50
2022-10-04T04:32:49.639Z,2.20
2022-10-04T04:38:05.568Z,2.70
2022-10-04T04:43:19.853Z,2.60
2022-10-04T04:48:23.736Z,3.20
2022-10-04T04:53:30.633Z,2.30
2022-10-04T04:58:37.734Z,2.00
2022-10-04T05:03:41.554Z,5.80
2022-10-04T05:08:51.256Z,2.20
2022-10-04T05:14:00.939Z,2.50
2022-10-04T05:19:13.820Z,3.20
2022-10-04T05:24:26.643Z,2.50
2022-10-04T05:29:38.657Z,2.10
2022-10-04T05:34:47.149Z,2.40
2022-10-04T05:39:50.297Z,5.10
2022-10-04T05:44:56.129Z,3.80
2022-10-04T05:50:01.306Z,2.30
2022-10-04T05:55:29.005Z,2.40
2022-10-04T06:00:45.934Z,2.70
2022-10-04T06:05:57.743Z,4.50
2022-10-04T06:11:11.091Z,1.90
2022-10-04T06:16:42.495Z,2.90
2022-10-04T06:22:08.708Z,1.40
2022-10-04T06:27:37.412Z,1.90
2022-10-04T06:33:29.262Z,4.20
2022-10-04T06:39:10.972Z,3.40
2022-10-04T06:44:51.763Z,1.60
2022-10-04T06:50:07.670Z,1.50
2022-10-04T06:55:22.038Z,2.40
2022-10-04T07:05:42.893Z,2.10
2022-10-04T07:10:55.829Z,2.90
2022-10-04T07:16:16.981Z,1.70
2022-10-04T07:21:22.623Z,1.90
2022-10-04T07:26:29.928Z,2.20
2022-10-04T07:31:38.402Z,1.80
2022-10-04T07:36:56.983Z,1.70
2022-10-04T07:42:26.455Z,2.00
2022-10-04T07:47:30.380Z,1.60
2022-10-04T07:53:09.328Z,2.40
2022-10-04T07:58:27.382Z,1.80
2022-10-04T08:04:11.995Z,3.50
2022-10-04T08:09:41.789Z,2.60
2022-10-04T08:14:55.364Z,4.10
2022-10-04T08:20:20.874Z,1.90
2022-10-04T08:25:37.507Z,2.40
2022-10-04T08:31:17.369Z,1.50
2022-10-04T08:36:52.010Z,1.80
2022-10-04T08:47:25.877Z,1.40
2022-10-04T08:52:47.718Z,1.90
2022-10-04T08:58:03.314Z,1.20
2022-10-04T09:03:35.091Z,1.70
2022-10-04T09:08:44.033Z,0.90
2022-10-04T09:14:24.516Z,1.10
2022-10-04T09:20:37.387Z,1.40
2022-10-04T09:26:13.743Z,1.30
2022-10-04T09:31:39.887Z,0.70
2022-10-04T09:36:58.462Z,0.90
2022-10-04T09:42:07.707Z,1.30
2022-10-04T09:47:41.531Z,2.10
2022-10-04T09:53:07.261Z,1.40
2022-10-04T09:58:43.839Z,1.40
2022-10-04T10:03:47.579Z,1.00
2022-10-04T10:09:11.376Z,1.10
2022-10-04T10:14:48.472Z,2.20
2022-10-04T10:20:15.049Z,1.50
2022-10-04T10:25:27.349Z,0.60
2022-10-04T10:30:48.780Z,1.30
2022-10-04T10:36:01.853Z,1.00
2022-10-04T10:41:05.955Z,1.00
2022-10-04T10:46:24.564Z,0.90
2022-10-04T10:52:26.200Z,1.40
2022-10-04T10:58:06.844Z,2.10
2022-10-04T11:03:23.875Z,0.60
2022-10-04T11:08:48.633Z,0.80
2022-10-04T11:14:13.961Z,1.00
2022-10-04T11:19:34.989Z,3.20
2022-10-04T11:25:05.947Z,0.70
2022-10-04T11:30:14.889Z,1.40
2022-10-04T11:35:44.619Z,0.80
2022-10-04T11:41:00.337Z,2.00
2022-10-04T11:46:22.091Z,0.70
2022-10-04T11:51:48.106Z,0.60
2022-10-04T11:57:17.016Z,0.80
2022-10-04T12:02:56.884Z,1.50
2022-10-04T12:08:39.516Z,1.30
2022-10-04T12:13:56.754Z,2.50
2022-10-04T12:19:17.267Z,0.90
2022-10-04T12:24:20.678Z,0.90
2022-10-04T12:29:56.148Z,1.00
2022-10-04T12:35:14.665Z,1.30
2022-10-04T12:40:30.212Z,1.10
2022-10-04T12:45:48.595Z,0.50
2022-10-04T12:51:30.801Z,0.70
2022-10-04T12:57:04.316Z,0.90
2022-10-04T13:02:36.708Z,0.60
2022-10-04T13:08:04.287Z,0.40
2022-10-04T13:13:32.611Z,0.40
2022-10-04T13:19:08.613Z,1.70
2022-10-04T13:24:55.904Z,0.30
2022-10-04T13:30:02.800Z,1.10
2022-10-04T13:35:24.141Z,1.10
2022-10-04T13:40:42.700Z,0.70
2022-10-04T13:46:29.841Z,0.60
2022-10-04T13:51:41.707Z,1.90
2022-10-04T13:56:48.033Z,1.40
2022-10-04T14:02:22.598Z,1.20
2022-10-04T14:12:50.187Z,1.10
2022-10-04T14:18:41.298Z,0.80
2022-10-04T14:24:03.455Z,1.20
2022-10-04T14:29:46.655Z,0.80
2022-10-04T14:34:59.758Z,2.00
2022-10-04T14:40:18.822Z,2.30
2022-10-04T14:45:51.487Z,4.20
2022-10-04T14:50:57.956Z,1.30
2022-10-04T14:56:14.618Z,2.50
2022-10-04T15:01:28.359Z,1.00
2022-10-04T15:06:50.783Z,0.50
2022-10-04T15:17:28.071Z,0.50
2022-10-04T15:22:39.714Z,1.00
2022-10-04T15:27:53.008Z,1.30
2022-10-04T15:33:17.702Z,2.60
2022-10-04T15:38:32.936Z,2.90
2022-10-04T15:43:44.025Z,0.90
2022-10-04T15:48:52.909Z,1.00
2022-10-04T15:54:16.130Z,11.30
2022-10-04T15:59:35.618Z,39.80
2022-10-04T16:04:49.754Z,4.30
2022-10-04T16:09:58.535Z,11.10
2022-10-04T16:15:21.053Z,2.90
2022-10-04T16:20:36.917Z,24.60
2022-10-04T16:25:41.381Z,3.80
2022-10-04T16:31:46.982Z,24.00
2022-10-04T16:37:06.485Z,13.30
2022-10-04T16:42:18.303Z,13.80
2022-10-04T16:47:50.786Z,52.50
2022-10-04T16:53:40.330Z,11.80
2022-10-04T16:59:01.040Z,74.50
2022-10-04T17:05:13.534Z,68.20
2022-10-04T17:10:30.083Z,20.40
2022-10-04T17:15:49.037Z,12.60
2022-10-04T17:21:12.085Z,22.40
2022-10-04T17:26:42.580Z,12.30
2022-10-04T17:31:57.381Z,11.50
2022-10-04T17:37:42.564Z,12.30
2022-10-04T17:43:11.258Z,28.00
2022-10-04T17:49:13.749Z,16.90
2022-10-04T17:54:57.542Z,9.20
2022-10-04T18:00:11.704Z,9.60
2022-10-04T18:05:48.903Z,11.80
2022-10-04T18:10:59.690Z,13.40
2022-10-04T18:16:41.189Z,59.80
2022-10-04T18:21:53.151Z,41.80
2022-10-04T18:27:05.163Z,25.70
2022-10-04T18:32:31.603Z,28.60
2022-10-04T18:37:39.569Z,15.70
2022-10-04T18:43:06.876Z,18.80
2022-10-04T18:48:18.538Z,9.10
2022-10-04T18:53:33.874Z,8.10
2022-10-04T18:59:16.092Z,6.00
2022-10-04T19:04:33.947Z,9.10
2022-10-04T19:09:58.993Z,14.20
2022-10-04T19:16:14.604Z,12.20
2022-10-04T19:21:43.294Z,5.50
2022-10-04T19:27:32.679Z,5.70
2022-10-04T19:33:02.337Z,4.60
2022-10-04T19:39:01.466Z,4.30
2022-10-04T19:44:13.639Z,3.60
2022-10-04T19:49:48.024Z,4.50
2022-10-04T20:00:37.594Z,7.40
2022-10-04T20:05:47.893Z,6.90
2022-10-04T20:11:11.846Z,5.40
2022-10-04T20:16:48.111Z,4.90
2022-10-04T20:21:52.978Z,4.30
2022-10-04T20:26:56.963Z,4.40
2022-10-04T20:32:00.547Z,8.30
2022-10-04T20:37:07.005Z,7.00
2022-10-04T20:42:51.220Z,5.10
2022-10-04T20:47:58.176Z,4.70
2022-10-04T20:53:07.258Z,4.50
2022-10-04T20:58:41.747Z,5.60
2022-10-04T21:04:46.970Z,5.20
2022-10-04T21:16:18.753Z,11.10
2022-10-04T21:21:53.023Z,8.20
2022-10-04T21:27:47.216Z,6.90
2022-10-04T21:33:51.046Z,7.90
2022-10-04T21:39:55.040Z,6.30
2022-10-04T21:45:59.006Z,7.40
2022-10-04T21:52:02.993Z,6.30
2022-10-04T21:58:06.784Z,4.30
2022-10-04T22:04:10.728Z,4.20
2022-10-04T22:10:14.670Z,4.80
2022-10-04T22:16:18.111Z,4.20
2022-10-04T22:22:22.121Z,4.70
2022-10-04T22:28:26.030Z,4.30
2022-10-04T22:34:14.795Z,5.30
2022-10-04T22:40:18.694Z,4.80
2022-10-04T22:46:22.431Z,4.90
2022-10-04T22:52:26.432Z,5.30
2022-10-04T22:58:30.100Z,6.40
2022-10-04T23:04:34.008Z,6.30
2022-10-04T23:10:37.950Z,5.90
2022-10-04T23:16:10.166Z,5.30
2022-10-04T23:21:32.927Z,8.50
2022-10-04T23:27:22.125Z,10.80
2022-10-04T23:32:53.789Z,8.90
2022-10-04T23:38:26.603Z,8.90
2022-10-04T23:43:39.133Z,9.80
2022-10-04T23:49:08.048Z,6.00
2022-10-04T23:55:11.947Z,5.80
